createdAt,value
2019-03-01T00:01:36.077Z,3.97
2019-03-01T00:04:15.191Z,2.97
2019-03-01T00:06:49.288Z,3.33
2019-03-01T00:09:38.867Z,3.50
2019-03-01T00:12:46.680Z,2.87
2019-03-01T00:16:12.163Z,3.50
2019-03-01T00:19:55.500Z,2.63
2019-03-01T00:22:59.849Z,2.50
2019-03-01T00:26:15.332Z,2.80
2019-03-01T00:28:56.818Z,3.57
2019-03-01T00:32:16.600Z,2.23
2019-03-01T00:35:28.399Z,3.33
2019-03-01T00:38:06.171Z,2.90
2019-03-01T00:41:07.140Z,3.03
2019-03-01T00:44:04.911Z,3.33
2019-03-01T00:46:53.353Z,2.17
2019-03-01T00:49:22.654Z,2.97
2019-03-01T00:51:51.952Z,3.00
2019-03-01T00:54:21.352Z,2.90
2019-03-01T00:56:51.367Z,3.33
2019-03-01T00:59:20.672Z,2.87
2019-03-01T01:01:49.968Z,2.93
2019-03-01T01:04:19.272Z,2.67
2019-03-01T01:06:48.319Z,2.90
2019-03-01T01:09:17.672Z,2.70
2019-03-01T01:11:46.975Z,2.80
2019-03-01T01:14:16.394Z,2.90
2019-03-01T01:16:45.763Z,3.37
2019-03-01T01:19:15.653Z,3.40
2019-03-01T01:21:44.973Z,3.20
2019-03-01T01:24:14.792Z,3.00
2019-03-01T01:26:44.087Z,3.13
2019-03-01T01:29:13.033Z,2.70
2019-03-01T01:31:42.088Z,3.23
2019-03-01T01:34:11.684Z,3.50
2019-03-01T01:36:41.291Z,3.30
2019-03-01T01:39:11.516Z,3.57
2019-03-01T01:41:41.115Z,3.30
2019-03-01T01:44:10.304Z,3.00
2019-03-01T01:46:39.975Z,3.20
2019-03-01T01:49:09.324Z,3.80
2019-03-01T01:51:38.724Z,3.40
2019-03-01T01:54:08.024Z,2.97
2019-03-01T01:56:37.377Z,3.13
2019-03-01T01:59:06.404Z,3.27
2019-03-01T02:01:35.712Z,3.30
2019-03-01T02:04:04.747Z,3.30
2019-03-01T02:06:33.795Z,3.30
2019-03-01T02:09:02.901Z,3.80
2019-03-01T02:11:31.881Z,2.70
2019-03-01T02:14:00.843Z,3.30
2019-03-01T02:16:29.875Z,3.47
2019-03-01T02:18:59.177Z,3.23
2019-03-01T02:21:28.216Z,3.37
2019-03-01T02:23:57.567Z,3.27
2019-03-01T02:26:26.608Z,3.23
2019-03-01T02:28:55.864Z,2.87
2019-03-01T02:31:24.908Z,2.70
2019-03-01T02:33:53.940Z,2.80
2019-03-01T02:36:22.983Z,2.33
2019-03-01T02:38:52.245Z,2.70
2019-03-01T02:41:21.282Z,2.87
2019-03-01T02:43:50.635Z,2.90
2019-03-01T02:46:20.345Z,3.20
2019-03-01T02:48:49.313Z,2.00
2019-03-01T02:51:18.685Z,2.40
2019-03-01T02:53:47.707Z,2.60
2019-03-01T02:56:17.344Z,2.80
2019-03-01T02:58:46.539Z,2.30
2019-03-01T03:01:15.779Z,2.33
2019-03-01T03:03:44.713Z,2.23
2019-03-01T03:06:22.666Z,2.67
2019-03-01T03:08:51.845Z,1.93
2019-03-01T03:11:20.855Z,2.70
2019-03-01T03:13:49.765Z,2.20
2019-03-01T03:16:19.337Z,2.67
2019-03-01T03:18:49.127Z,2.67
2019-03-01T03:21:18.057Z,2.37
2019-03-01T03:23:47.319Z,2.87
2019-03-01T03:26:16.284Z,2.40
2019-03-01T03:28:45.813Z,2.20
2019-03-01T03:31:14.916Z,2.30
2019-03-01T03:33:44.110Z,2.00
2019-03-01T03:36:32.860Z,3.03
2019-03-01T03:39:02.066Z,2.10
2019-03-01T03:41:31.253Z,2.50
2019-03-01T03:44:00.342Z,2.50
2019-03-01T03:46:29.345Z,2.60
2019-03-01T03:48:58.281Z,2.20
2019-03-01T03:51:27.593Z,1.80
2019-03-01T03:53:56.593Z,2.40
2019-03-01T03:56:25.506Z,2.20
2019-03-01T03:58:54.509Z,2.73
2019-03-01T04:01:24.058Z,2.53
2019-03-01T04:03:53.418Z,2.50
2019-03-01T04:06:22.719Z,2.90
2019-03-01T04:08:51.656Z,2.50
2019-03-01T04:11:20.806Z,2.80
2019-03-01T04:13:50.025Z,2.57
2019-03-01T04:16:19.343Z,2.37
2019-03-01T04:18:48.601Z,2.60
2019-03-01T04:21:17.798Z,2.80
2019-03-01T04:23:47.101Z,2.73
2019-03-01T04:26:16.301Z,2.77
2019-03-01T04:28:45.232Z,3.13
2019-03-01T04:31:14.088Z,3.30
2019-03-01T04:33:42.944Z,2.70
2019-03-01T04:36:12.165Z,3.10
2019-03-01T04:38:41.301Z,3.13
2019-03-01T04:41:10.453Z,3.40
2019-03-01T04:43:39.648Z,2.73
2019-03-01T04:46:08.652Z,2.80
2019-03-01T04:48:38.146Z,3.00
2019-03-01T04:51:07.148Z,3.30
2019-03-01T04:53:36.012Z,3.53
2019-03-01T04:56:05.328Z,3.17
2019-03-01T04:58:35.858Z,3.73
2019-03-01T05:01:05.261Z,3.40
2019-03-01T05:03:34.200Z,3.00
2019-03-01T05:06:03.114Z,3.63
2019-03-01T05:08:32.236Z,3.70
2019-03-01T05:11:01.844Z,4.43
2019-03-01T05:13:30.793Z,4.33
2019-03-01T05:15:59.736Z,5.25
2019-03-01T05:18:28.695Z,5.85
2019-03-01T05:20:57.552Z,6.72
2019-03-01T05:23:27.013Z,19.20
2019-03-01T05:25:56.314Z,16.27
2019-03-01T05:28:25.176Z,12.33
2019-03-01T05:30:54.396Z,7.10
2019-03-01T05:33:23.901Z,5.45
2019-03-01T05:35:53.068Z,5.83
2019-03-01T05:38:22.179Z,5.30
2019-03-01T05:40:51.389Z,4.87
2019-03-01T05:43:20.280Z,5.03
2019-03-01T05:45:49.407Z,4.92
2019-03-01T05:48:18.748Z,4.85
2019-03-01T05:50:47.888Z,5.20
2019-03-01T05:53:16.749Z,5.15
2019-03-01T05:55:46.064Z,4.80
2019-03-01T05:58:29.201Z,4.90
2019-03-01T06:01:10.024Z,4.10
2019-03-01T06:04:08.245Z,3.83
2019-03-01T06:07:05.164Z,4.25
2019-03-01T06:09:51.880Z,3.85
2019-03-01T06:12:51.129Z,4.60
2019-03-01T06:15:45.988Z,4.70
2019-03-01T06:18:42.729Z,5.37
2019-03-01T06:21:40.801Z,5.00
2019-03-01T06:24:57.649Z,5.03
2019-03-01T06:27:54.876Z,4.35
2019-03-01T06:30:38.448Z,3.98
2019-03-01T06:33:36.380Z,6.33
2019-03-01T06:36:49.605Z,5.30
2019-03-01T06:40:18.718Z,4.00
2019-03-01T06:43:47.350Z,3.97
2019-03-01T06:46:32.262Z,3.45
2019-03-01T06:49:10.463Z,3.73
2019-03-01T06:51:39.344Z,2.90
2019-03-01T06:54:08.285Z,3.27
2019-03-01T06:56:37.548Z,3.10
2019-03-01T06:59:07.877Z,3.02
2019-03-01T07:01:43.189Z,3.40
2019-03-01T07:04:16.508Z,5.03
2019-03-01T07:06:46.039Z,5.92
2019-03-01T07:09:15.317Z,4.95
2019-03-01T07:11:44.223Z,5.33
2019-03-01T07:14:13.444Z,6.22
2019-03-01T07:16:42.696Z,5.25
2019-03-01T07:19:11.603Z,4.53
2019-03-01T07:21:41.051Z,4.03
2019-03-01T07:24:10.347Z,3.07
2019-03-01T07:26:39.326Z,3.07
2019-03-01T07:29:08.616Z,2.30
2019-03-01T07:31:37.559Z,1.60
2019-03-01T07:34:06.691Z,2.10
2019-03-01T07:36:35.974Z,2.07
2019-03-01T07:39:08.280Z,2.00
2019-03-01T07:41:37.565Z,1.90
2019-03-01T07:44:06.568Z,2.10
2019-03-01T07:46:35.760Z,2.10
2019-03-01T07:49:05.009Z,2.10
2019-03-01T07:51:35.984Z,1.87
2019-03-01T07:54:05.369Z,2.30
2019-03-01T07:56:37.033Z,1.90
2019-03-01T07:59:05.375Z,2.43
2019-03-01T08:01:55.846Z,2.70
2019-03-01T08:04:28.757Z,3.47
2019-03-01T08:06:55.725Z,4.20
2019-03-01T08:09:24.823Z,3.40
2019-03-01T08:11:54.220Z,1.73
2019-03-01T08:14:24.655Z,2.30
2019-03-01T08:16:56.112Z,1.40
2019-03-01T08:19:24.980Z,1.70
2019-03-01T08:21:54.089Z,1.93
2019-03-01T08:24:23.030Z,1.60
2019-03-01T08:26:52.173Z,1.70
2019-03-01T08:29:21.044Z,1.70
2019-03-01T08:31:52.824Z,1.80
2019-03-01T08:34:20.850Z,1.70
2019-03-01T08:36:50.292Z,1.43
2019-03-01T08:39:19.157Z,1.33
2019-03-01T08:41:48.091Z,1.30
2019-03-01T08:44:19.364Z,1.47
2019-03-01T08:46:48.042Z,1.60
2019-03-01T08:49:17.198Z,1.67
2019-03-01T08:51:46.070Z,1.67
2019-03-01T08:54:15.285Z,1.47
2019-03-01T08:56:46.466Z,1.83
2019-03-01T08:59:17.695Z,1.80
2019-03-01T09:01:45.922Z,1.80
2019-03-01T09:04:18.097Z,2.00
2019-03-01T09:06:46.651Z,1.70
2019-03-01T09:09:17.556Z,1.70
2019-03-01T09:11:47.035Z,1.80
2019-03-01T09:14:16.295Z,1.83
2019-03-01T09:16:45.220Z,2.30
2019-03-01T09:19:14.228Z,1.90
2019-03-01T09:21:44.756Z,2.03
2019-03-01T09:24:14.764Z,2.03
2019-03-01T09:26:43.616Z,2.03
2019-03-01T09:29:17.564Z,2.00
2019-03-01T09:31:43.363Z,1.70
2019-03-01T09:34:12.301Z,1.83
2019-03-01T09:36:44.732Z,1.60
2019-03-01T09:39:14.506Z,1.97
2019-03-01T09:41:44.983Z,2.00
2019-03-01T09:44:14.187Z,2.10
2019-03-01T09:46:43.107Z,1.77
2019-03-01T09:49:12.115Z,1.80
2019-03-01T09:51:43.604Z,1.63
2019-03-01T09:54:12.164Z,1.90
2019-03-01T09:56:41.022Z,1.97
2019-03-01T09:59:10.352Z,1.93
2019-03-01T10:01:39.376Z,1.87
2019-03-01T10:04:08.681Z,1.90
2019-03-01T10:06:38.372Z,2.10
2019-03-01T10:09:11.783Z,1.90
2019-03-01T10:11:40.698Z,1.50
2019-03-01T10:14:10.177Z,1.23
2019-03-01T10:16:39.374Z,1.50
2019-03-01T10:19:08.596Z,1.40
2019-03-01T10:21:37.543Z,1.47
2019-03-01T10:24:06.761Z,1.60
2019-03-01T10:26:35.617Z,1.47
2019-03-01T10:29:04.612Z,1.40
2019-03-01T10:31:33.481Z,1.50
2019-03-01T10:34:02.957Z,1.40
2019-03-01T10:36:32.201Z,1.47
2019-03-01T10:39:01.375Z,1.60
2019-03-01T10:41:30.627Z,1.50
2019-03-01T10:43:59.480Z,1.73
2019-03-01T10:46:28.351Z,1.90
2019-03-01T10:48:57.508Z,1.53
2019-03-01T10:51:26.700Z,1.70
2019-03-01T10:53:55.553Z,1.80
2019-03-01T10:56:24.412Z,1.60
2019-03-01T10:58:53.737Z,1.40
2019-03-01T11:01:22.976Z,1.57
2019-03-01T11:03:51.825Z,2.10
2019-03-01T11:06:20.787Z,2.30
2019-03-01T11:08:49.716Z,1.93
2019-03-01T11:11:18.955Z,1.90
2019-03-01T11:13:47.880Z,4.83
2019-03-01T11:16:16.745Z,2.80
2019-03-01T11:18:45.594Z,2.43
2019-03-01T11:21:14.535Z,2.20
2019-03-01T11:23:43.706Z,1.60
2019-03-01T11:26:12.716Z,1.40
2019-03-01T11:28:41.554Z,1.17
2019-03-01T11:31:10.438Z,1.10
2019-03-01T11:33:39.356Z,1.00
2019-03-01T11:36:08.301Z,1.00
2019-03-01T11:38:37.223Z,1.03
2019-03-01T11:41:07.025Z,1.30
2019-03-01T11:43:36.675Z,1.30
2019-03-01T11:46:05.671Z,1.00
2019-03-01T11:48:35.265Z,1.33
2019-03-01T11:51:04.209Z,1.73
2019-03-01T11:53:33.456Z,1.40
2019-03-01T11:56:02.465Z,1.23
2019-03-01T11:58:31.460Z,0.90
2019-03-01T12:01:19.893Z,1.00
2019-03-01T12:03:48.909Z,1.03
2019-03-01T12:06:17.835Z,0.80
2019-03-01T12:08:47.072Z,1.00
2019-03-01T12:11:16.079Z,0.80
2019-03-01T12:13:45.023Z,1.23
2019-03-01T12:16:14.117Z,1.10
2019-03-01T12:18:43.243Z,2.93
2019-03-01T12:21:12.748Z,1.40
2019-03-01T12:23:41.951Z,1.10
2019-03-01T12:26:11.140Z,1.30
2019-03-01T12:28:40.085Z,1.07
2019-03-01T12:31:08.976Z,1.47
2019-03-01T12:33:38.169Z,1.20
2019-03-01T12:36:07.420Z,1.30
2019-03-01T12:38:36.294Z,1.23
2019-03-01T12:41:05.220Z,1.33
2019-03-01T12:43:34.428Z,1.47
2019-03-01T12:46:03.359Z,1.67
2019-03-01T12:48:32.284Z,1.17
2019-03-01T12:51:01.481Z,1.23
2019-03-01T12:53:30.611Z,1.03
2019-03-01T12:56:00.080Z,1.10
2019-03-01T12:58:28.943Z,1.57
2019-03-01T13:00:58.064Z,1.50
2019-03-01T13:03:27.260Z,1.20
2019-03-01T13:05:56.180Z,1.17
2019-03-01T13:08:25.116Z,1.50
2019-03-01T13:10:54.028Z,0.90
2019-03-01T13:13:22.890Z,1.13
2019-03-01T13:15:52.374Z,1.10
2019-03-01T13:18:21.841Z,1.20
2019-03-01T13:21:12.939Z,1.40
2019-03-01T13:23:41.324Z,5.40
2019-03-01T13:26:10.552Z,3.90
2019-03-01T13:28:39.419Z,1.90
2019-03-01T13:31:11.526Z,1.30
2019-03-01T13:33:39.345Z,0.90
2019-03-01T13:36:08.353Z,1.00
2019-03-01T13:38:37.220Z,1.40
2019-03-01T13:41:06.252Z,1.47
2019-03-01T13:43:35.509Z,1.77
2019-03-01T13:46:05.240Z,1.77
2019-03-01T13:48:34.246Z,1.80
2019-03-01T13:51:03.244Z,2.03
2019-03-01T13:53:33.358Z,1.73
2019-03-01T13:56:02.837Z,1.40
2019-03-01T13:58:51.182Z,1.60
2019-03-01T14:01:20.045Z,1.67
2019-03-01T14:03:49.177Z,1.70
2019-03-01T14:06:18.357Z,1.40
2019-03-01T14:08:47.237Z,1.80
2019-03-01T14:11:20.430Z,1.30
2019-03-01T14:13:50.923Z,1.30
2019-03-01T14:16:20.547Z,1.37
2019-03-01T14:18:49.450Z,1.70
2019-03-01T14:21:18.665Z,1.10
2019-03-01T14:23:47.515Z,1.40
2019-03-01T14:26:18.641Z,1.20
2019-03-01T14:28:47.036Z,1.50
2019-03-01T14:31:16.045Z,1.30
2019-03-01T14:33:45.465Z,1.53
2019-03-01T14:36:14.667Z,1.30
2019-03-01T14:48:36.614Z,1.53
2019-03-01T14:51:07.065Z,1.57
2019-03-01T14:53:36.689Z,1.43
2019-03-01T14:56:10.498Z,1.90
2019-03-01T14:58:44.473Z,1.83
2019-03-01T15:01:41.957Z,2.37
2019-03-01T15:04:10.893Z,2.73
2019-03-01T15:06:39.841Z,2.10
2019-03-01T15:09:09.657Z,1.90
2019-03-01T15:11:41.205Z,1.73
2019-03-01T15:14:13.349Z,2.73
2019-03-01T15:16:43.356Z,3.60
2019-03-01T15:19:10.988Z,4.60
2019-03-01T15:21:40.201Z,4.80
2019-03-01T15:24:09.400Z,2.00
2019-03-01T15:26:38.426Z,3.70
2019-03-01T15:29:07.569Z,4.27
2019-03-01T15:31:36.428Z,3.33
2019-03-01T15:34:05.724Z,2.20
2019-03-01T15:36:34.969Z,2.47
2019-03-01T15:39:05.586Z,1.87
2019-03-01T15:41:34.864Z,5.67
2019-03-01T15:44:03.869Z,10.60
2019-03-01T15:46:32.808Z,17.47
2019-03-01T15:49:01.942Z,11.97
2019-03-01T15:51:30.957Z,13.57
2019-03-01T15:54:01.067Z,4.90
2019-03-01T15:56:31.144Z,9.57
2019-03-01T15:59:00.076Z,6.77
2019-03-01T16:01:29.348Z,4.80
2019-03-01T16:03:58.600Z,2.50
2019-03-01T16:06:27.845Z,4.17
2019-03-01T16:08:56.792Z,6.40
2019-03-01T16:11:25.643Z,4.50
2019-03-01T16:13:54.568Z,3.47
2019-03-01T16:16:23.492Z,4.43
2019-03-01T16:18:52.908Z,3.10
2019-03-01T16:21:21.832Z,2.60
2019-03-01T16:23:51.409Z,2.87
2019-03-01T16:26:29.434Z,4.20
2019-03-01T16:28:50.919Z,2.90
2019-03-01T16:31:19.857Z,3.30
2019-03-01T16:33:49.128Z,7.70
2019-03-01T16:36:26.427Z,5.97
2019-03-01T16:38:54.158Z,4.85
2019-03-01T16:41:23.004Z,3.30
2019-03-01T16:43:52.152Z,3.00
2019-03-01T16:46:21.101Z,3.70
2019-03-01T16:48:52.336Z,3.70
2019-03-01T16:51:21.312Z,3.80
2019-03-01T16:53:50.437Z,3.52
2019-03-01T16:56:19.445Z,4.25
2019-03-01T16:58:48.728Z,4.40
2019-03-01T17:01:18.010Z,4.30
2019-03-01T17:03:49.655Z,5.30
2019-03-01T17:06:18.204Z,4.37
2019-03-01T17:08:47.085Z,4.80
2019-03-01T17:11:16.705Z,4.50
2019-03-01T17:13:45.841Z,5.30
2019-03-01T17:16:14.756Z,5.30
2019-03-01T17:18:44.686Z,5.20
2019-03-01T17:21:15.749Z,6.20
2019-03-01T17:23:45.543Z,5.03
2019-03-01T17:26:14.857Z,4.80
2019-03-01T17:28:43.792Z,4.50
2019-03-01T17:31:12.717Z,4.03
2019-03-01T17:33:45.081Z,4.10
2019-03-01T17:36:12.983Z,4.17
2019-03-01T17:38:46.042Z,21.97
2019-03-01T17:41:14.769Z,8.70
2019-03-01T17:43:43.969Z,4.70
2019-03-01T17:46:12.888Z,6.00
2019-03-01T17:48:42.136Z,5.83
2019-03-01T17:51:12.033Z,5.70
2019-03-01T17:53:43.123Z,6.00
2019-03-01T17:56:12.597Z,7.30
2019-03-01T17:58:41.897Z,6.95
2019-03-01T18:01:11.097Z,6.67
2019-03-01T18:03:40.020Z,7.60
2019-03-01T18:06:12.733Z,6.85
2019-03-01T18:08:40.744Z,6.27
2019-03-01T18:11:10.037Z,6.20
2019-03-01T18:13:39.229Z,6.30
2019-03-01T18:16:08.476Z,7.12
2019-03-01T18:18:37.725Z,7.20
2019-03-01T18:21:06.668Z,6.20
2019-03-01T18:23:37.946Z,7.70
2019-03-01T18:26:06.932Z,7.47
2019-03-01T18:28:36.153Z,7.40
2019-03-01T18:31:05.185Z,7.35
2019-03-01T18:33:34.456Z,7.70
2019-03-01T18:36:03.471Z,7.90
2019-03-01T18:38:33.041Z,7.78
2019-03-01T18:41:02.346Z,8.48
2019-03-01T18:43:31.216Z,8.10
2019-03-01T18:46:00.435Z,9.20
2019-03-01T18:48:30.446Z,8.30
2019-03-01T18:50:59.313Z,8.80
2019-03-01T18:53:28.850Z,8.87
2019-03-01T18:55:58.960Z,7.65
2019-03-01T18:58:28.157Z,7.53
2019-03-01T19:00:57.025Z,7.30
2019-03-01T19:03:25.959Z,7.37
2019-03-01T19:05:55.132Z,6.50
2019-03-01T19:08:23.996Z,6.47
2019-03-01T19:10:54.383Z,6.60
2019-03-01T19:13:24.496Z,6.92
2019-03-01T19:15:54.756Z,8.17
2019-03-01T19:18:24.220Z,7.60
2019-03-01T19:20:53.500Z,7.92
2019-03-01T19:23:22.705Z,8.60
2019-03-01T19:25:51.955Z,8.78
2019-03-01T19:28:23.615Z,9.60
2019-03-01T19:30:51.780Z,8.58
2019-03-01T19:33:20.649Z,8.80
2019-03-01T19:35:49.904Z,8.15
2019-03-01T19:38:21.806Z,9.40
2019-03-01T19:40:49.836Z,8.45
2019-03-01T19:43:19.227Z,9.20
2019-03-01T19:45:48.191Z,9.10
2019-03-01T19:48:17.104Z,9.60
2019-03-01T19:50:46.316Z,7.70
2019-03-01T19:53:15.281Z,8.73
2019-03-01T19:55:47.235Z,7.30
2019-03-01T19:58:16.815Z,7.30
2019-03-01T20:00:46.177Z,7.30
2019-03-01T20:03:15.371Z,7.73
2019-03-01T20:05:44.334Z,8.73
2019-03-01T20:08:13.289Z,7.75
2019-03-01T20:10:42.568Z,8.88
2019-03-01T20:13:13.009Z,8.70
2019-03-01T20:15:42.779Z,8.68
2019-03-01T20:18:13.630Z,9.60
2019-03-01T20:20:42.494Z,9.00
2019-03-01T20:23:11.725Z,10.05
2019-03-01T20:25:41.020Z,10.35
2019-03-01T20:28:11.454Z,10.75
2019-03-01T20:30:41.000Z,11.35
2019-03-01T20:33:10.014Z,11.28
2019-03-01T20:35:39.164Z,11.73
2019-03-01T20:38:08.331Z,13.00
2019-03-01T20:40:37.533Z,11.57
2019-03-01T20:43:07.214Z,12.65
2019-03-01T20:45:36.323Z,13.28
2019-03-01T20:48:05.652Z,13.32
2019-03-01T20:50:36.491Z,14.15
2019-03-01T20:53:05.311Z,14.23
2019-03-01T20:55:36.932Z,14.28
2019-03-01T20:58:05.414Z,14.45
2019-03-01T21:00:34.330Z,14.30
2019-03-01T21:03:03.207Z,14.18
2019-03-01T21:05:32.063Z,14.70
2019-03-01T21:08:01.321Z,14.30
2019-03-01T21:10:30.348Z,14.70
2019-03-01T21:12:59.660Z,14.90
2019-03-01T21:15:28.952Z,15.40
2019-03-01T21:17:58.740Z,14.58
2019-03-01T21:20:28.685Z,14.60
2019-03-01T21:22:58.284Z,14.73
2019-03-01T21:25:27.565Z,15.55
2019-03-01T21:27:57.636Z,15.50
2019-03-01T21:30:28.231Z,17.40
2019-03-01T21:32:57.249Z,15.93
2019-03-01T21:35:26.524Z,14.20
2019-03-01T21:37:55.875Z,15.35
2019-03-01T21:40:24.898Z,14.90
2019-03-01T21:42:57.385Z,15.95
2019-03-01T21:45:24.786Z,15.08
2019-03-01T21:47:53.842Z,15.68
2019-03-01T21:50:23.155Z,16.62
2019-03-01T21:52:52.015Z,16.25
2019-03-01T21:55:21.329Z,16.70
2019-03-01T21:57:50.640Z,16.42
2019-03-01T22:00:25.486Z,16.60
2019-03-01T22:02:53.024Z,15.90
2019-03-01T22:05:23.231Z,16.42
2019-03-01T22:07:52.584Z,16.17
2019-03-01T22:10:21.680Z,16.15
2019-03-01T22:12:51.026Z,15.80
2019-03-01T22:15:25.266Z,15.63
2019-03-01T22:17:52.406Z,15.25
2019-03-01T22:20:22.681Z,15.08
2019-03-01T22:22:51.592Z,15.72
2019-03-01T22:25:20.917Z,15.85
2019-03-01T22:27:50.215Z,15.15
2019-03-01T22:30:26.172Z,15.80
2019-03-01T22:32:55.100Z,15.35
2019-03-01T22:35:24.359Z,16.60
2019-03-01T22:37:53.776Z,16.55
2019-03-01T22:40:24.147Z,16.45
2019-03-01T22:42:53.688Z,16.00
2019-03-01T22:45:22.956Z,16.65
2019-03-01T22:47:52.106Z,16.40
2019-03-01T22:50:21.131Z,16.30
2019-03-01T22:52:50.239Z,15.90
2019-03-01T22:55:19.579Z,16.10
2019-03-01T22:57:48.792Z,17.10
2019-03-01T23:01:03.232Z,17.17
2019-03-01T23:03:32.756Z,17.90
2019-03-01T23:06:02.063Z,17.82
2019-03-01T23:08:31.684Z,18.17
2019-03-01T23:11:01.614Z,17.67
2019-03-01T23:13:31.159Z,19.92
2019-03-01T23:16:00.113Z,20.82
2019-03-01T23:18:29.557Z,20.43
2019-03-01T23:21:01.078Z,21.50
2019-03-01T23:23:30.045Z,22.80
2019-03-01T23:25:59.296Z,23.18
2019-03-01T23:28:28.499Z,22.32
2019-03-01T23:31:00.576Z,22.42
2019-03-01T23:33:31.659Z,22.90
2019-03-01T23:35:59.661Z,23.43
2019-03-01T23:38:28.815Z,23.55
2019-03-01T23:40:58.067Z,23.20
2019-03-01T23:43:27.619Z,22.45
2019-03-01T23:45:57.793Z,22.40
2019-03-01T23:48:26.993Z,23.13
2019-03-01T23:50:56.492Z,23.37
2019-03-01T23:53:27.415Z,21.50
2019-03-01T23:55:56.556Z,22.25
2019-03-01T23:58:25.838Z,22.82
